Terminal Aerodrome Forecast
Issued by NWS Riverton, WY

Home | Current Version | Previous Version | Text Only | Print | Product List | Glossary On
Versions: 1 2 3 4 5 6 7 8 9 10 11 12 13 14 15 16 17 18 19 20 21
000
FTUS45 KRIW 290533
TAFRIW
TAF
KRIW 290533Z 2906/3006 09008KT P6SM VCSH SCT024 BKN040
     FM291100 08006KT P6SM BKN024
     FM291800 08007KT P6SM OVC035
     FM300500 06008KT P6SM OVC025=

USA.gov is the U.S. government's official web portal to all federal, state and local government web resources and services.